sensor_id;sensor_type;location;lat;lon;timestamp;P1;durP1;ratioP1;P2;durP2;ratioP2
80209;SDS011;69529;37.974;23.708;2023-04-24T00:00:11;18.52;;;12.70;;
80209;SDS011;69529;37.974;23.708;2023-04-24T00:02:40;22.17;;;12.68;;
80209;SDS011;69529;37.974;23.708;2023-04-24T00:05:10;17.15;;;13.18;;
80209;SDS011;69529;37.974;23.708;2023-04-24T00:07:38;15.90;;;12.60;;
80209;SDS011;69529;37.974;23.708;2023-04-24T00:10:06;18.82;;;12.93;;
80209;SDS011;69529;37.974;23.708;2023-04-24T00:12:35;22.77;;;13.45;;
80209;SDS011;69529;37.974;23.708;2023-04-24T00:15:04;20.05;;;12.75;;
80209;SDS011;69529;37.974;23.708;2023-04-24T00:17:32;17.75;;;13.22;;
80209;SDS011;69529;37.974;23.708;2023-04-24T00:19:59;25.05;;;13.58;;
80209;SDS011;69529;37.974;23.708;2023-04-24T00:22:29;18.65;;;12.88;;
80209;SDS011;69529;37.974;23.708;2023-04-24T00:24:57;19.62;;;13.45;;
80209;SDS011;69529;37.974;23.708;2023-04-24T00:27:24;21.73;;;12.82;;
80209;SDS011;69529;37.974;23.708;2023-04-24T00:29:52;19.60;;;12.98;;
80209;SDS011;69529;37.974;23.708;2023-04-24T00:32:20;17.25;;;11.48;;
80209;SDS011;69529;37.974;23.708;2023-04-24T00:34:48;16.00;;;12.60;;
80209;SDS011;69529;37.974;23.708;2023-04-24T00:37:15;18.32;;;13.00;;
80209;SDS011;69529;37.974;23.708;2023-04-24T00:39:43;19.32;;;11.88;;
80209;SDS011;69529;37.974;23.708;2023-04-24T00:42:11;15.48;;;12.30;;
80209;SDS011;69529;37.974;23.708;2023-04-24T00:44:39;18.70;;;12.03;;
80209;SDS011;69529;37.974;23.708;2023-04-24T00:47:07;16.60;;;12.43;;
80209;SDS011;69529;37.974;23.708;2023-04-24T00:49:34;16.05;;;11.85;;
80209;SDS011;69529;37.974;23.708;2023-04-24T00:52:02;16.35;;;11.28;;
80209;SDS011;69529;37.974;23.708;2023-04-24T00:54:31;18.07;;;12.70;;
80209;SDS011;69529;37.974;23.708;2023-04-24T00:56:59;19.30;;;12.75;;
80209;SDS011;69529;37.974;23.708;2023-04-24T00:59:27;18.40;;;12.65;;
80209;SDS011;69529;37.974;23.708;2023-04-24T01:01:55;16.80;;;12.25;;
80209;SDS011;69529;37.974;23.708;2023-04-24T01:04:24;22.32;;;13.13;;
80209;SDS011;69529;37.974;23.708;2023-04-24T01:06:52;18.80;;;12.55;;
80209;SDS011;69529;37.974;23.708;2023-04-24T01:09:22;19.35;;;12.35;;
80209;SDS011;69529;37.974;23.708;2023-04-24T01:11:51;15.08;;;12.37;;
80209;SDS011;69529;37.974;23.708;2023-04-24T01:14:19;15.20;;;11.60;;
80209;SDS011;69529;37.974;23.708;2023-04-24T01:16:47;18.00;;;12.68;;
80209;SDS011;69529;37.974;23.708;2023-04-24T01:19:15;17.02;;;12.73;;
80209;SDS011;69529;37.974;23.708;2023-04-24T01:21:44;15.85;;;12.43;;
80209;SDS011;69529;37.974;23.708;2023-04-24T01:24:14;15.55;;;12.00;;
80209;SDS011;69529;37.974;23.708;2023-04-24T01:26:41;18.45;;;12.43;;
80209;SDS011;69529;37.974;23.708;2023-04-24T01:29:09;14.98;;;12.00;;
80209;SDS011;69529;37.974;23.708;2023-04-24T01:31:37;19.73;;;12.10;;
80209;SDS011;69529;37.974;23.708;2023-04-24T01:34:06;17.60;;;11.78;;
80209;SDS011;69529;37.974;23.708;2023-04-24T01:36:34;18.57;;;12.33;;
80209;SDS011;69529;37.974;23.708;2023-04-24T01:39:02;16.97;;;12.37;;
80209;SDS011;69529;37.974;23.708;2023-04-24T01:41:30;17.35;;;12.33;;
80209;SDS011;69529;37.974;23.708;2023-04-24T01:43:58;15.45;;;12.40;;
80209;SDS011;69529;37.974;23.708;2023-04-24T01:46:25;19.65;;;12.68;;
80209;SDS011;69529;37.974;23.708;2023-04-24T01:48:53;18.85;;;12.68;;
80209;SDS011;69529;37.974;23.708;2023-04-24T01:51:22;19.20;;;12.75;;
80209;SDS011;69529;37.974;23.708;2023-04-24T01:53:49;18.40;;;13.25;;
80209;SDS011;69529;37.974;23.708;2023-04-24T01:56:17;17.20;;;12.75;;
80209;SDS011;69529;37.974;23.708;2023-04-24T01:58:45;18.07;;;12.98;;
80209;SDS011;69529;37.974;23.708;2023-04-24T02:01:20;20.57;;;13.05;;
80209;SDS011;69529;37.974;23.708;2023-04-24T02:03:47;16.67;;;12.05;;
80209;SDS011;69529;37.974;23.708;2023-04-24T02:06:15;23.30;;;13.60;;
80209;SDS011;69529;37.974;23.708;2023-04-24T02:08:43;16.30;;;12.95;;
80209;SDS011;69529;37.974;23.708;2023-04-24T02:11:11;20.25;;;13.00;;
80209;SDS011;69529;37.974;23.708;2023-04-24T02:13:39;17.40;;;13.03;;
80209;SDS011;69529;37.974;23.708;2023-04-24T02:16:06;20.75;;;13.45;;
80209;SDS011;69529;37.974;23.708;2023-04-24T02:18:34;18.82;;;12.33;;
80209;SDS011;69529;37.974;23.708;2023-04-24T02:21:02;17.82;;;12.58;;
80209;SDS011;69529;37.974;23.708;2023-04-24T02:23:29;21.93;;;13.72;;
80209;SDS011;69529;37.974;23.708;2023-04-24T02:25:57;16.20;;;13.00;;
80209;SDS011;69529;37.974;23.708;2023-04-24T02:28:25;14.85;;;12.60;;
80209;SDS011;69529;37.974;23.708;2023-04-24T02:30:52;23.05;;;13.10;;
80209;SDS011;69529;37.974;23.708;2023-04-24T02:33:20;17.35;;;12.45;;
80209;SDS011;69529;37.974;23.708;2023-04-24T02:35:48;20.57;;;12.73;;
80209;SDS011;69529;37.974;23.708;2023-04-24T02:38:15;19.57;;;12.55;;
80209;SDS011;69529;37.974;23.708;2023-04-24T02:40:43;17.70;;;12.80;;
80209;SDS011;69529;37.974;23.708;2023-04-24T02:43:11;18.77;;;13.25;;
80209;SDS011;69529;37.974;23.708;2023-04-24T02:45:39;24.32;;;12.75;;
80209;SDS011;69529;37.974;23.708;2023-04-24T02:48:06;17.82;;;12.47;;
80209;SDS011;69529;37.974;23.708;2023-04-24T02:50:35;19.20;;;13.08;;
80209;SDS011;69529;37.974;23.708;2023-04-24T02:53:02;18.73;;;12.00;;
80209;SDS011;69529;37.974;23.708;2023-04-24T02:55:30;14.83;;;12.68;;
80209;SDS011;69529;37.974;23.708;2023-04-24T02:57:58;16.27;;;12.23;;
80209;SDS011;69529;37.974;23.708;2023-04-24T03:00:25;17.12;;;12.53;;
80209;SDS011;69529;37.974;23.708;2023-04-24T03:02:53;19.70;;;12.80;;
80209;SDS011;69529;37.974;23.708;2023-04-24T03:05:21;18.00;;;12.82;;
80209;SDS011;69529;37.974;23.708;2023-04-24T03:07:48;18.57;;;11.95;;
80209;SDS011;69529;37.974;23.708;2023-04-24T03:10:18;17.17;;;13.15;;
80209;SDS011;69529;37.974;23.708;2023-04-24T03:12:45;18.20;;;12.80;;
80209;SDS011;69529;37.974;23.708;2023-04-24T03:15:13;21.93;;;13.40;;
80209;SDS011;69529;37.974;23.708;2023-04-24T03:17:41;16.97;;;12.45;;
80209;SDS011;69529;37.974;23.708;2023-04-24T03:20:09;20.12;;;13.15;;
80209;SDS011;69529;37.974;23.708;2023-04-24T03:22:37;15.15;;;11.70;;
80209;SDS011;69529;37.974;23.708;2023-04-24T03:25:05;17.65;;;13.15;;
80209;SDS011;69529;37.974;23.708;2023-04-24T03:27:34;16.60;;;12.68;;
80209;SDS011;69529;37.974;23.708;2023-04-24T03:30:03;16.55;;;12.50;;
80209;SDS011;69529;37.974;23.708;2023-04-24T03:32:32;21.68;;;12.53;;
80209;SDS011;69529;37.974;23.708;2023-04-24T03:34:59;25.05;;;13.00;;
80209;SDS011;69529;37.974;23.708;2023-04-24T03:37:27;21.20;;;11.88;;
80209;SDS011;69529;37.974;23.708;2023-04-24T03:39:55;24.20;;;11.63;;
80209;SDS011;69529;37.974;23.708;2023-04-24T03:42:22;20.57;;;11.15;;
80209;SDS011;69529;37.974;23.708;2023-04-24T03:44:50;23.02;;;11.73;;
80209;SDS011;69529;37.974;23.708;2023-04-24T03:47:17;20.88;;;11.20;;
80209;SDS011;69529;37.974;23.708;2023-04-24T03:49:45;19.62;;;11.28;;
80209;SDS011;69529;37.974;23.708;2023-04-24T03:52:13;21.23;;;11.93;;
80209;SDS011;69529;37.974;23.708;2023-04-24T03:54:40;24.45;;;11.90;;
80209;SDS011;69529;37.974;23.708;2023-04-24T03:57:08;21.73;;;12.25;;
80209;SDS011;69529;37.974;23.708;2023-04-24T03:59:36;18.40;;;12.05;;
80209;SDS011;69529;37.974;23.708;2023-04-24T04:02:03;19.42;;;11.73;;
80209;SDS011;69529;37.974;23.708;2023-04-24T04:04:31;15.43;;;11.65;;
80209;SDS011;69529;37.974;23.708;2023-04-24T04:06:58;18.17;;;11.68;;
80209;SDS011;69529;37.974;23.708;2023-04-24T04:09:28;18.32;;;11.50;;
80209;SDS011;69529;37.974;23.708;2023-04-24T04:11:56;17.32;;;10.82;;
80209;SDS011;69529;37.974;23.708;2023-04-24T04:14:23;16.77;;;11.20;;
80209;SDS011;69529;37.974;23.708;2023-04-24T04:16:51;19.32;;;12.47;;
80209;SDS011;69529;37.974;23.708;2023-04-24T04:19:19;27.17;;;11.78;;
80209;SDS011;69529;37.974;23.708;2023-04-24T04:21:46;18.10;;;11.55;;
80209;SDS011;69529;37.974;23.708;2023-04-24T04:24:16;16.70;;;12.15;;
80209;SDS011;69529;37.974;23.708;2023-04-24T04:26:43;23.30;;;12.40;;
80209;SDS011;69529;37.974;23.708;2023-04-24T04:29:13;18.15;;;11.65;;
80209;SDS011;69529;37.974;23.708;2023-04-24T04:31:41;19.95;;;12.20;;
80209;SDS011;69529;37.974;23.708;2023-04-24T04:34:08;24.82;;;12.63;;
80209;SDS011;69529;37.974;23.708;2023-04-24T04:36:37;21.17;;;11.40;;
80209;SDS011;69529;37.974;23.708;2023-04-24T04:39:06;20.92;;;12.68;;
80209;SDS011;69529;37.974;23.708;2023-04-24T04:41:34;21.05;;;12.35;;
80209;SDS011;69529;37.974;23.708;2023-04-24T04:44:01;18.80;;;11.50;;
80209;SDS011;69529;37.974;23.708;2023-04-24T04:46:30;19.90;;;12.47;;
80209;SDS011;69529;37.974;23.708;2023-04-24T04:48:59;25.62;;;12.37;;
80209;SDS011;69529;37.974;23.708;2023-04-24T04:51:28;23.45;;;11.85;;
80209;SDS011;69529;37.974;23.708;2023-04-24T04:53:56;20.85;;;11.73;;
80209;SDS011;69529;37.974;23.708;2023-04-24T04:56:24;21.57;;;12.58;;
80209;SDS011;69529;37.974;23.708;2023-04-24T04:58:52;20.08;;;12.33;;
80209;SDS011;69529;37.974;23.708;2023-04-24T05:01:19;18.57;;;11.97;;
80209;SDS011;69529;37.974;23.708;2023-04-24T05:03:48;17.57;;;11.33;;
80209;SDS011;69529;37.974;23.708;2023-04-24T05:06:16;17.92;;;11.63;;
80209;SDS011;69529;37.974;23.708;2023-04-24T05:08:44;18.48;;;12.05;;
80209;SDS011;69529;37.974;23.708;2023-04-24T05:11:11;19.00;;;11.12;;
80209;SDS011;69529;37.974;23.708;2023-04-24T05:13:39;18.12;;;12.37;;
80209;SDS011;69529;37.974;23.708;2023-04-24T05:16:07;21.20;;;11.93;;
80209;SDS011;69529;37.974;23.708;2023-04-24T05:18:34;18.23;;;12.88;;
80209;SDS011;69529;37.974;23.708;2023-04-24T05:21:02;18.87;;;12.40;;
80209;SDS011;69529;37.974;23.708;2023-04-24T05:23:30;17.98;;;11.70;;
80209;SDS011;69529;37.974;23.708;2023-04-24T05:25:57;18.05;;;11.38;;
80209;SDS011;69529;37.974;23.708;2023-04-24T05:28:25;18.30;;;11.18;;
80209;SDS011;69529;37.974;23.708;2023-04-24T05:30:55;16.70;;;11.40;;
80209;SDS011;69529;37.974;23.708;2023-04-24T05:33:25;15.53;;;10.50;;
80209;SDS011;69529;37.974;23.708;2023-04-24T05:35:52;17.85;;;9.93;;
80209;SDS011;69529;37.974;23.708;2023-04-24T05:38:20;18.30;;;10.32;;
80209;SDS011;69529;37.974;23.708;2023-04-24T05:40:48;16.25;;;9.50;;
80209;SDS011;69529;37.974;23.708;2023-04-24T05:43:15;21.75;;;10.28;;
80209;SDS011;69529;37.974;23.708;2023-04-24T05:45:43;14.83;;;9.35;;
80209;SDS011;69529;37.974;23.708;2023-04-24T05:48:11;14.55;;;9.85;;
80209;SDS011;69529;37.974;23.708;2023-04-24T05:50:38;13.20;;;9.80;;
80209;SDS011;69529;37.974;23.708;2023-04-24T05:53:06;15.23;;;8.35;;
80209;SDS011;69529;37.974;23.708;2023-04-24T05:55:36;13.13;;;8.15;;
80209;SDS011;69529;37.974;23.708;2023-04-24T05:58:03;11.57;;;8.00;;
80209;SDS011;69529;37.974;23.708;2023-04-24T06:00:31;10.53;;;7.55;;
80209;SDS011;69529;37.974;23.708;2023-04-24T06:03:01;12.05;;;7.90;;
80209;SDS011;69529;37.974;23.708;2023-04-24T06:05:29;13.78;;;7.45;;
80209;SDS011;69529;37.974;23.708;2023-04-24T06:07:57;9.50;;;6.62;;
80209;SDS011;69529;37.974;23.708;2023-04-24T06:10:24;10.82;;;7.62;;
80209;SDS011;69529;37.974;23.708;2023-04-24T06:12:53;9.30;;;6.92;;
80209;SDS011;69529;37.974;23.708;2023-04-24T06:15:22;11.25;;;7.05;;
80209;SDS011;69529;37.974;23.708;2023-04-24T06:17:49;8.10;;;6.30;;
80209;SDS011;69529;37.974;23.708;2023-04-24T06:20:17;9.30;;;6.78;;
80209;SDS011;69529;37.974;23.708;2023-04-24T06:22:45;10.20;;;6.05;;
80209;SDS011;69529;37.974;23.708;2023-04-24T06:25:12;9.53;;;6.28;;
80209;SDS011;69529;37.974;23.708;2023-04-24T06:27:40;10.88;;;5.87;;
80209;SDS011;69529;37.974;23.708;2023-04-24T06:30:08;8.50;;;5.53;;
80209;SDS011;69529;37.974;23.708;2023-04-24T06:32:36;9.20;;;5.90;;
80209;SDS011;69529;37.974;23.708;2023-04-24T06:35:04;8.55;;;5.67;;
80209;SDS011;69529;37.974;23.708;2023-04-24T06:37:33;5.90;;;4.62;;
80209;SDS011;69529;37.974;23.708;2023-04-24T06:40:01;7.30;;;4.97;;
80209;SDS011;69529;37.974;23.708;2023-04-24T06:42:30;10.28;;;5.50;;
80209;SDS011;69529;37.974;23.708;2023-04-24T06:44:59;8.85;;;5.60;;
80209;SDS011;69529;37.974;23.708;2023-04-24T06:47:26;8.15;;;5.60;;
80209;SDS011;69529;37.974;23.708;2023-04-24T06:49:54;8.85;;;4.72;;
80209;SDS011;69529;37.974;23.708;2023-04-24T06:52:22;6.70;;;4.50;;
80209;SDS011;69529;37.974;23.708;2023-04-24T06:54:49;6.65;;;4.78;;
80209;SDS011;69529;37.974;23.708;2023-04-24T06:57:17;6.60;;;4.83;;
80209;SDS011;69529;37.974;23.708;2023-04-24T06:59:46;8.23;;;4.40;;
80209;SDS011;69529;37.974;23.708;2023-04-24T07:02:13;5.58;;;4.25;;
80209;SDS011;69529;37.974;23.708;2023-04-24T07:04:41;7.25;;;4.53;;
80209;SDS011;69529;37.974;23.708;2023-04-24T07:07:09;5.62;;;4.17;;
80209;SDS011;69529;37.974;23.708;2023-04-24T07:09:40;5.12;;;3.98;;
80209;SDS011;69529;37.974;23.708;2023-04-24T07:12:08;4.30;;;3.90;;
80209;SDS011;69529;37.974;23.708;2023-04-24T07:17:06;3.95;;;3.60;;
80209;SDS011;69529;37.974;23.708;2023-04-24T07:19:34;7.37;;;5.15;;
80209;SDS011;69529;37.974;23.708;2023-04-24T07:22:02;7.33;;;5.08;;
80209;SDS011;69529;37.974;23.708;2023-04-24T07:24:30;6.05;;;4.80;;
80209;SDS011;69529;37.974;23.708;2023-04-24T07:27:00;6.42;;;4.60;;
80209;SDS011;69529;37.974;23.708;2023-04-24T07:29:29;4.90;;;3.90;;
80209;SDS011;69529;37.974;23.708;2023-04-24T07:31:56;6.10;;;3.90;;
80209;SDS011;69529;37.974;23.708;2023-04-24T07:34:24;6.28;;;4.17;;
80209;SDS011;69529;37.974;23.708;2023-04-24T07:36:52;3.87;;;3.37;;
80209;SDS011;69529;37.974;23.708;2023-04-24T07:39:19;7.20;;;3.60;;
80209;SDS011;69529;37.974;23.708;2023-04-24T07:41:47;6.58;;;3.10;;
80209;SDS011;69529;37.974;23.708;2023-04-24T07:44:15;3.40;;;3.10;;
80209;SDS011;69529;37.974;23.708;2023-04-24T07:46:42;3.62;;;3.00;;
80209;SDS011;69529;37.974;23.708;2023-04-24T07:49:10;3.90;;;2.72;;
80209;SDS011;69529;37.974;23.708;2023-04-24T07:51:38;3.35;;;2.98;;
80209;SDS011;69529;37.974;23.708;2023-04-24T07:54:07;3.35;;;3.05;;
80209;SDS011;69529;37.974;23.708;2023-04-24T07:56:34;4.50;;;2.87;;
80209;SDS011;69529;37.974;23.708;2023-04-24T07:59:04;6.55;;;3.35;;
80209;SDS011;69529;37.974;23.708;2023-04-24T08:01:32;4.30;;;2.75;;
80209;SDS011;69529;37.974;23.708;2023-04-24T08:03:59;3.12;;;2.80;;
80209;SDS011;69529;37.974;23.708;2023-04-24T08:06:28;4.17;;;3.17;;
80209;SDS011;69529;37.974;23.708;2023-04-24T08:08:57;3.00;;;2.70;;
80209;SDS011;69529;37.974;23.708;2023-04-24T08:11:26;5.03;;;2.92;;
80209;SDS011;69529;37.974;23.708;2023-04-24T08:13:54;3.35;;;3.05;;
80209;SDS011;69529;37.974;23.708;2023-04-24T08:16:21;3.30;;;2.95;;
80209;SDS011;69529;37.974;23.708;2023-04-24T08:18:52;3.85;;;3.17;;
80209;SDS011;69529;37.974;23.708;2023-04-24T08:21:20;3.42;;;3.12;;
80209;SDS011;69529;37.974;23.708;2023-04-24T08:23:48;5.80;;;2.72;;
80209;SDS011;69529;37.974;23.708;2023-04-24T08:26:16;6.03;;;3.50;;
80209;SDS011;69529;37.974;23.708;2023-04-24T08:28:43;6.97;;;3.45;;
80209;SDS011;69529;37.974;23.708;2023-04-24T08:31:11;5.22;;;3.25;;
80209;SDS011;69529;37.974;23.708;2023-04-24T08:33:39;5.37;;;3.40;;
80209;SDS011;69529;37.974;23.708;2023-04-24T08:36:07;5.33;;;3.02;;
80209;SDS011;69529;37.974;23.708;2023-04-24T08:38:35;5.95;;;3.10;;
80209;SDS011;69529;37.974;23.708;2023-04-24T08:41:02;6.00;;;2.80;;
80209;SDS011;69529;37.974;23.708;2023-04-24T08:43:30;5.58;;;3.10;;
80209;SDS011;69529;37.974;23.708;2023-04-24T08:46:00;5.05;;;3.25;;
80209;SDS011;69529;37.974;23.708;2023-04-24T08:48:28;3.45;;;2.85;;
80209;SDS011;69529;37.974;23.708;2023-04-24T08:50:56;4.72;;;3.08;;
80209;SDS011;69529;37.974;23.708;2023-04-24T08:53:25;7.20;;;2.95;;
80209;SDS011;69529;37.974;23.708;2023-04-24T08:55:54;6.17;;;2.83;;
80209;SDS011;69529;37.974;23.708;2023-04-24T08:58:22;5.00;;;3.10;;
80209;SDS011;69529;37.974;23.708;2023-04-24T09:00:54;7.67;;;3.37;;
80209;SDS011;69529;37.974;23.708;2023-04-24T09:03:22;4.10;;;3.30;;
80209;SDS011;69529;37.974;23.708;2023-04-24T09:05:50;5.50;;;2.95;;
80209;SDS011;69529;37.974;23.708;2023-04-24T09:08:22;4.70;;;3.17;;
80209;SDS011;69529;37.974;23.708;2023-04-24T09:10:51;4.92;;;3.40;;
80209;SDS011;69529;37.974;23.708;2023-04-24T09:13:19;3.70;;;3.40;;
80209;SDS011;69529;37.974;23.708;2023-04-24T09:15:47;6.47;;;3.10;;
80209;SDS011;69529;37.974;23.708;2023-04-24T09:18:14;3.52;;;3.00;;
80209;SDS011;69529;37.974;23.708;2023-04-24T09:21:01;3.33;;;3.02;;
80209;SDS011;69529;37.974;23.708;2023-04-24T09:23:31;4.90;;;3.12;;
80209;SDS011;69529;37.974;23.708;2023-04-24T09:26:00;3.20;;;3.00;;
80209;SDS011;69529;37.974;23.708;2023-04-24T09:28:32;5.58;;;3.10;;
80209;SDS011;69529;37.974;23.708;2023-04-24T09:31:13;3.35;;;3.05;;
80209;SDS011;69529;37.974;23.708;2023-04-24T09:34:07;3.72;;;3.00;;
80209;SDS011;69529;37.974;23.708;2023-04-24T09:36:38;4.83;;;3.00;;
80209;SDS011;69529;37.974;23.708;2023-04-24T09:39:11;3.00;;;2.75;;
80209;SDS011;69529;37.974;23.708;2023-04-24T09:42:15;3.30;;;3.00;;
80209;SDS011;69529;37.974;23.708;2023-04-24T09:44:22;3.25;;;2.90;;
80209;SDS011;69529;37.974;23.708;2023-04-24T09:46:51;4.20;;;2.80;;
80209;SDS011;69529;37.974;23.708;2023-04-24T09:49:22;5.10;;;2.90;;
80209;SDS011;69529;37.974;23.708;2023-04-24T09:51:50;3.58;;;2.95;;
80209;SDS011;69529;37.974;23.708;2023-04-24T09:54:19;5.33;;;2.90;;
80209;SDS011;69529;37.974;23.708;2023-04-24T09:56:49;4.05;;;3.00;;
80209;SDS011;69529;37.974;23.708;2023-04-24T09:59:18;3.10;;;2.80;;
80209;SDS011;69529;37.974;23.708;2023-04-24T10:01:46;3.00;;;2.80;;
80209;SDS011;69529;37.974;23.708;2023-04-24T10:04:22;4.33;;;2.90;;
80209;SDS011;69529;37.974;23.708;2023-04-24T10:06:52;5.03;;;2.90;;
80209;SDS011;69529;37.974;23.708;2023-04-24T10:09:22;4.23;;;2.90;;
80209;SDS011;69529;37.974;23.708;2023-04-24T10:11:52;3.17;;;2.77;;
80209;SDS011;69529;37.974;23.708;2023-04-24T10:14:21;3.27;;;2.98;;
80209;SDS011;69529;37.974;23.708;2023-04-24T10:16:51;3.02;;;2.60;;
80209;SDS011;69529;37.974;23.708;2023-04-24T10:19:25;5.17;;;2.83;;
80209;SDS011;69529;37.974;23.708;2023-04-24T10:21:53;5.42;;;3.00;;
80209;SDS011;69529;37.974;23.708;2023-04-24T10:24:21;4.00;;;2.80;;
80209;SDS011;69529;37.974;23.708;2023-04-24T10:26:49;3.02;;;2.72;;
80209;SDS011;69529;37.974;23.708;2023-04-24T10:29:18;4.25;;;2.80;;
80209;SDS011;69529;37.974;23.708;2023-04-24T10:31:47;3.50;;;2.70;;
80209;SDS011;69529;37.974;23.708;2023-04-24T10:34:16;2.92;;;2.72;;
80209;SDS011;69529;37.974;23.708;2023-04-24T10:36:48;2.90;;;2.62;;
80209;SDS011;69529;37.974;23.708;2023-04-24T10:39:17;3.70;;;2.80;;
80209;SDS011;69529;37.974;23.708;2023-04-24T10:41:48;3.63;;;3.00;;
80209;SDS011;69529;37.974;23.708;2023-04-24T10:44:16;3.27;;;2.98;;
80209;SDS011;69529;37.974;23.708;2023-04-24T10:46:45;3.75;;;3.00;;
80209;SDS011;69529;37.974;23.708;2023-04-24T10:49:16;3.10;;;2.90;;
80209;SDS011;69529;37.974;23.708;2023-04-24T10:51:53;4.72;;;3.02;;
80209;SDS011;69529;37.974;23.708;2023-04-24T10:59:51;3.50;;;3.20;;
80209;SDS011;69529;37.974;23.708;2023-04-24T11:02:23;3.50;;;3.20;;
80209;SDS011;69529;37.974;23.708;2023-04-24T11:04:51;7.33;;;3.37;;
80209;SDS011;69529;37.974;23.708;2023-04-24T11:07:19;3.85;;;3.30;;
80209;SDS011;69529;37.974;23.708;2023-04-24T11:09:48;4.28;;;3.20;;
80209;SDS011;69529;37.974;23.708;2023-04-24T11:12:18;5.77;;;3.30;;
80209;SDS011;69529;37.974;23.708;2023-04-24T11:17:32;3.62;;;3.33;;
80209;SDS011;69529;37.974;23.708;2023-04-24T11:20:06;3.27;;;2.98;;
80209;SDS011;69529;37.974;23.708;2023-04-24T11:22:37;3.47;;;3.17;;
80209;SDS011;69529;37.974;23.708;2023-04-24T11:25:06;4.45;;;3.00;;
80209;SDS011;69529;37.974;23.708;2023-04-24T11:27:42;3.45;;;3.10;;
80209;SDS011;69529;37.974;23.708;2023-04-24T11:30:11;3.75;;;2.80;;
80209;SDS011;69529;37.974;23.708;2023-04-24T11:32:41;3.55;;;3.10;;
80209;SDS011;69529;37.974;23.708;2023-04-24T11:35:20;3.25;;;2.90;;
80209;SDS011;69529;37.974;23.708;2023-04-24T11:37:55;3.20;;;2.85;;
80209;SDS011;69529;37.974;23.708;2023-04-24T11:40:21;3.30;;;3.00;;
80209;SDS011;69529;37.974;23.708;2023-04-24T11:42:51;3.10;;;2.80;;
80209;SDS011;69529;37.974;23.708;2023-04-24T11:45:28;4.20;;;2.90;;
80209;SDS011;69529;37.974;23.708;2023-04-24T11:47:53;3.58;;;2.92;;
80209;SDS011;69529;37.974;23.708;2023-04-24T11:50:24;2.90;;;2.70;;
80209;SDS011;69529;37.974;23.708;2023-04-24T11:52:53;5.20;;;3.40;;
80209;SDS011;69529;37.974;23.708;2023-04-24T11:57:54;5.42;;;3.35;;
80209;SDS011;69529;37.974;23.708;2023-04-24T12:00:24;6.22;;;3.60;;
80209;SDS011;69529;37.974;23.708;2023-04-24T12:03:11;3.35;;;3.05;;
80209;SDS011;69529;37.974;23.708;2023-04-24T12:05:37;4.72;;;3.35;;
80209;SDS011;69529;37.974;23.708;2023-04-24T12:08:05;7.17;;;3.45;;
80209;SDS011;69529;37.974;23.708;2023-04-24T12:10:33;3.37;;;3.08;;
80209;SDS011;69529;37.974;23.708;2023-04-24T12:13:01;5.22;;;2.87;;
80209;SDS011;69529;37.974;23.708;2023-04-24T12:15:29;5.08;;;3.08;;
80209;SDS011;69529;37.974;23.708;2023-04-24T12:17:57;3.10;;;2.90;;
80209;SDS011;69529;37.974;23.708;2023-04-24T12:20:28;3.62;;;3.10;;
80209;SDS011;69529;37.974;23.708;2023-04-24T12:22:59;4.03;;;3.02;;
80209;SDS011;69529;37.974;23.708;2023-04-24T12:25:28;3.90;;;3.08;;
80209;SDS011;69529;37.974;23.708;2023-04-24T12:30:40;2.98;;;2.50;;
80209;SDS011;69529;37.974;23.708;2023-04-24T12:33:10;3.65;;;2.50;;
80209;SDS011;69529;37.974;23.708;2023-04-24T12:35:39;2.90;;;2.60;;
80209;SDS011;69529;37.974;23.708;2023-04-24T12:38:11;3.12;;;2.83;;
80209;SDS011;69529;37.974;23.708;2023-04-24T12:40:44;3.27;;;2.35;;
80209;SDS011;69529;37.974;23.708;2023-04-24T12:45:57;3.12;;;2.67;;
80209;SDS011;69529;37.974;23.708;2023-04-24T12:48:26;3.67;;;2.87;;
80209;SDS011;69529;37.974;23.708;2023-04-24T12:50:54;2.67;;;2.47;;
80209;SDS011;69529;37.974;23.708;2023-04-24T12:53:23;4.08;;;2.50;;
80209;SDS011;69529;37.974;23.708;2023-04-24T12:55:52;2.90;;;2.62;;
80209;SDS011;69529;37.974;23.708;2023-04-24T12:58:25;5.17;;;2.90;;
80209;SDS011;69529;37.974;23.708;2023-04-24T13:00:49;4.70;;;2.75;;
80209;SDS011;69529;37.974;23.708;2023-04-24T13:03:17;4.80;;;2.80;;
80209;SDS011;69529;37.974;23.708;2023-04-24T13:05:45;4.65;;;2.80;;
80209;SDS011;69529;37.974;23.708;2023-04-24T13:08:13;3.50;;;2.70;;
80209;SDS011;69529;37.974;23.708;2023-04-24T13:10:41;4.00;;;2.60;;
80209;SDS011;69529;37.974;23.708;2023-04-24T13:13:08;4.60;;;2.90;;
80209;SDS011;69529;37.974;23.708;2023-04-24T13:15:36;3.87;;;2.58;;
80209;SDS011;69529;37.974;23.708;2023-04-24T13:18:03;3.00;;;2.70;;
80209;SDS011;69529;37.974;23.708;2023-04-24T13:20:31;3.80;;;3.00;;
80209;SDS011;69529;37.974;23.708;2023-04-24T13:23:01;4.67;;;2.58;;
80209;SDS011;69529;37.974;23.708;2023-04-24T13:25:35;3.50;;;2.77;;
80209;SDS011;69529;37.974;23.708;2023-04-24T13:27:59;4.60;;;2.70;;
80209;SDS011;69529;37.974;23.708;2023-04-24T13:30:27;2.83;;;2.40;;
80209;SDS011;69529;37.974;23.708;2023-04-24T13:32:55;3.08;;;2.77;;
80209;SDS011;69529;37.974;23.708;2023-04-24T13:35:22;4.25;;;2.52;;
80209;SDS011;69529;37.974;23.708;2023-04-24T13:37:50;3.00;;;2.80;;
80209;SDS011;69529;37.974;23.708;2023-04-24T13:40:18;2.75;;;2.40;;
80209;SDS011;69529;37.974;23.708;2023-04-24T13:42:45;5.03;;;2.58;;
80209;SDS011;69529;37.974;23.708;2023-04-24T13:45:13;4.37;;;2.40;;
80209;SDS011;69529;37.974;23.708;2023-04-24T13:47:40;2.62;;;2.42;;
80209;SDS011;69529;37.974;23.708;2023-04-24T13:50:08;4.50;;;2.40;;
80209;SDS011;69529;37.974;23.708;2023-04-24T13:52:36;2.87;;;2.50;;
80209;SDS011;69529;37.974;23.708;2023-04-24T13:55:04;2.70;;;2.50;;
80209;SDS011;69529;37.974;23.708;2023-04-24T13:57:32;4.92;;;2.72;;
80209;SDS011;69529;37.974;23.708;2023-04-24T14:00:00;3.02;;;2.30;;
80209;SDS011;69529;37.974;23.708;2023-04-24T14:02:29;2.52;;;2.30;;
80209;SDS011;69529;37.974;23.708;2023-04-24T14:04:57;3.08;;;2.40;;
80209;SDS011;69529;37.974;23.708;2023-04-24T14:07:25;4.50;;;2.40;;
80209;SDS011;69529;37.974;23.708;2023-04-24T14:09:52;2.50;;;2.30;;
80209;SDS011;69529;37.974;23.708;2023-04-24T14:12:20;2.98;;;2.67;;
80209;SDS011;69529;37.974;23.708;2023-04-24T14:14:48;3.62;;;2.50;;
80209;SDS011;69529;37.974;23.708;2023-04-24T14:17:15;2.67;;;2.45;;
80209;SDS011;69529;37.974;23.708;2023-04-24T14:19:43;2.65;;;2.45;;
80209;SDS011;69529;37.974;23.708;2023-04-24T14:22:11;6.08;;;2.50;;
80209;SDS011;69529;37.974;23.708;2023-04-24T14:24:38;2.58;;;2.33;;
80209;SDS011;69529;37.974;23.708;2023-04-24T14:27:06;3.15;;;2.47;;
80209;SDS011;69529;37.974;23.708;2023-04-24T14:29:34;3.87;;;2.40;;
80209;SDS011;69529;37.974;23.708;2023-04-24T14:32:01;2.80;;;2.60;;
80209;SDS011;69529;37.974;23.708;2023-04-24T14:34:29;2.67;;;2.40;;
80209;SDS011;69529;37.974;23.708;2023-04-24T14:36:57;3.15;;;2.58;;
80209;SDS011;69529;37.974;23.708;2023-04-24T14:39:24;3.58;;;2.47;;
80209;SDS011;69529;37.974;23.708;2023-04-24T14:41:52;2.67;;;2.40;;
80209;SDS011;69529;37.974;23.708;2023-04-24T14:44:21;2.67;;;2.15;;
80209;SDS011;69529;37.974;23.708;2023-04-24T14:49:35;2.65;;;2.45;;
80209;SDS011;69529;37.974;23.708;2023-04-24T14:52:03;3.10;;;2.35;;